Flight Track Log - Related Links

Times and Time Zones

All times are in EDT time to prevent confusion due to time zone crossing. See the EJA396 flight status page for this flight to view local times or setup timezone preferences in your user account.

Time Position Orientation Groundspeed Altitude Reporting Facility
EDT Latitude Longitude Course Direction KTS MPH feet Rate Location/Type
Tue 10:26:07 AM 43.3831 -114.2594 190° South 198 228 13,400  Level Salt Lake Center
Tue 10:27:00 AM 42.8913 -114.3584 188° South  Level FlightAware Approximate
Tue 10:27:09 AM 43.3033 -114.2544 177° South 286 329 16,400  Level Salt Lake Center
Tue 10:28:00 AM 42.7897 -114.3868 194° South  Level FlightAware Approximate
Tue 10:28:11 AM 43.2411 -114.3336 223° Southwest 297 342 19,700  Level Salt Lake Center
Tue 10:29:00 AM 42.6888 -114.4200 192° South  Level FlightAware Approximate
Tue 10:29:13 AM 43.1889 -114.4142 228° Southwest 308 354 22,500  Level Salt Lake Center
Tue 10:30:00 AM 42.5874 -114.4505 192° South  Level FlightAware Approximate
Tue 10:30:14 AM 43.1228 -114.5175 229° Southwest 323 372 26,000  Level Salt Lake Center
Tue 10:31:00 AM 42.4857 -114.4786 190° South  Level FlightAware Approximate
Tue 10:31:16 AM 43.0669 -114.6069 230° Southwest 324 373 28,800  Level Salt Lake Center
Tue 10:32:18 AM 42.9994 -114.7111 228° Southwest 328 377 31,400 2,371 Climbing Salt Lake Center
Tue 10:33:20 AM 42.9417 -114.8014 229° Southwest 329 379 33,700 1,742 Climbing Salt Lake Center
Tue 10:34:22 AM 42.8736 -114.9044 228° Southwest 333 383 35,000 629 Climbing Salt Lake Center
Tue 10:35:24 AM 42.8075 -115.0058 228° Southwest 364 419 35,000 242 Level Salt Lake Center
Tue 10:36:26 AM 42.7253 -115.1331 229° Southwest 397 457 35,500 1,161 Climbing Salt Lake Center
Tue 10:37:28 AM 42.6572 -115.2369 228° Southwest 384 442 37,400 1,210 Climbing Salt Lake Center
Tue 10:38:30 AM 42.5917 -115.3367 228° Southwest 372 428 38,000 290 Climbing Salt Lake Center
Tue 10:39:32 AM 42.5122 -115.4578 228° Southwest 383 441 38,000  Level Salt Lake Center
Tue 10:40:33 AM 42.4439 -115.5594 228° Southwest 382 440 38,000  Level Salt Lake Center
Tue 10:41:35 AM 42.3639 -115.6806 228° Southwest 385 443 38,000  Level Salt Lake Center
Tue 10:42:37 AM 42.2947 -115.7833 228° Southwest 385 443 38,000  Level Salt Lake Center
Tue 10:43:39 AM 42.2147 -115.9047 228° Southwest 387 445 38,000  Level Salt Lake Center
Tue 10:44:41 AM 42.1442 -116.0075 227° Southwest 389 448 38,000  Level Salt Lake Center
Tue 10:45:43 AM 42.0747 -116.1117 228° Southwest 391 450 38,000  Level Salt Lake Center
Tue 10:46:45 AM 41.9961 -116.2275 228° Southwest 394 453 38,000  Level Salt Lake Center
Tue 10:47:47 AM 41.9133 -116.3500 228° Southwest 396 456 38,000  Level Salt Lake Center
Tue 10:48:49 AM 41.8414 -116.4553 227° Southwest 399 459 38,000  Level Salt Lake Center
Tue 10:49:51 AM 41.7581 -116.5764 227° Southwest 395 455 38,000  Level Salt Lake Center
Tue 10:50:53 AM 41.6878 -116.6817 228° Southwest 396 456 38,000  Level Salt Lake Center
Tue 10:51:55 AM 41.6047 -116.8019 227° Southwest 395 455 38,000  Level Salt Lake Center
Tue 10:52:57 AM 41.5331 -116.9031 227° Southwest 393 452 38,000  Level Salt Lake Center
Tue 10:53:59 AM 41.4506 -117.0236 228° Southwest 395 455 38,000  Level Salt Lake Center
Tue 10:55:01 AM 41.3797 -117.1242 227° Southwest 392 451 38,000  Level Salt Lake Center
Tue 10:56:03 AM 41.3083 -117.2267 227° Southwest 393 452 38,000  Level Salt Lake Center
Tue 10:57:05 AM 41.2250 -117.3461 227° Southwest 395 455 38,000  Level Salt Lake Center
Tue 10:58:07 AM 41.1519 -117.4478 226° Southwest 398 458 38,000  Level Salt Lake Center
Tue 10:59:09 AM 41.0675 -117.5681 227° Southwest 400 460 38,000  Level Salt Lake Center
Tue 11:00:11 AM 40.9950 -117.6700 227° Southwest 399 459 38,000  Level Salt Lake Center
Tue 11:01:13 AM 40.9094 -117.7894 227° Southwest 402 463 38,000  Level Salt Lake Center
Tue 11:02:15 AM 40.8369 -117.8906 227° Southwest 398 458 38,000  Level Salt Lake Center
Tue 11:03:17 AM 40.7508 -118.0089 226° Southwest 400 460 38,000  Level Salt Lake Center
Tue 11:04:19 AM 40.6786 -118.1092 226° Southwest 397 457 38,000  Level Salt Lake Center
Tue 11:05:21 AM 40.5942 -118.2242 226° Southwest 394 453 38,000  Level Salt Lake Center
Tue 11:06:23 AM 40.5228 -118.3233 227° Southwest 392 451 38,000  Level Salt Lake Center
Tue 11:07:25 AM 40.4394 -118.4386 226° Southwest 390 449 38,000 -242 Level Salt Lake Center
Tue 11:08:27 AM 40.3664 -118.5364 226° Southwest 391 450 37,500 -1,065 Descending Salt Lake Center
Tue 11:09:29 AM 40.2847 -118.6486 226° Southwest 391 450 35,800 -1,210 Descending Salt Lake Center
Tue 11:10:31 AM 40.2108 -118.7514 227° Southwest 389 448 35,000 -387 Descending Salt Lake Center
Tue 11:11:33 AM 40.1369 -118.8517 226° Southwest 386 444 35,000  Level Salt Lake Center
Tue 11:12:35 AM 40.0489 -118.9306 214° Southwest 395 455 35,000  Level Salt Lake Center
Tue 11:13:37 AM 39.9181 -118.9789 196° South 405 466 35,000  Level Salt Lake Center
Tue 11:14:39 AM 39.8092 -119.0197 196° South 408 470 35,000  Level Salt Lake Center
Tue 11:15:41 AM 39.6997 -119.0589 195° South 409 471 35,000  Level Salt Lake Center
Tue 11:16:50 AM 39.5675 -119.1072 196° South 413 475 35,000 -415 Level Oakland Center
Tue 11:17:51 AM 39.4578 -119.1472 196° South 413 475 34,100 -488 Descending Oakland Center
Tue 11:18:53 AM 39.3469 -119.1864 195° South 415 478 34,000 -49 Descending Oakland Center
Tue 11:19:54 AM 39.2367 -119.2256 195° South 415 478 34,000  Level Oakland Center
Tue 11:20:55 AM 39.1250 -119.2650 195° South 418 481 34,000  Level Oakland Center
Tue 11:21:57 AM 39.0119 -119.3044 195° South 419 482 34,000  Level Oakland Center
Tue 11:22:58 AM 38.8778 -119.3528 196° South 418 481 34,000 -148 Level Oakland Center
Tue 11:23:59 AM 38.7678 -119.3914 195° South 413 475 33,700 -878 Descending Oakland Center
Tue 11:25:01 AM 38.6572 -119.4294 195° South 408 470 32,200 -1,463 Descending Oakland Center
Tue 11:26:02 AM 38.5453 -119.4706 196° South 416 479 30,700 -1,082 Descending Oakland Center
Tue 11:27:03 AM 38.4328 -119.5108 196° South 421 484 30,000 -341 Descending Oakland Center
Tue 11:28:05 AM 38.3111 -119.5531 195° South 416 479 30,000  Level Oakland Center
Tue 11:29:06 AM 38.2000 -119.5906 195° South 412 474 30,000  Level Oakland Center
Tue 11:30:07 AM 38.0897 -119.6283 195° South 408 470 30,000 -919 Level Oakland Center
Tue 11:31:10 AM 37.9797 -119.6664 195° South 408 470 28,100 -1,902 Descending Oakland Center
Tue 11:32:10 AM 37.8689 -119.7053 195° South 412 474 26,100 -1,967 Descending Oakland Center
Tue 11:33:12 AM 37.7578 -119.7436 195° South 412 474 24,100 -1,951 Descending Oakland Center
Tue 11:34:13 AM 37.6628 -119.8008 205° Southwest 385 443 22,100 -1,951 Descending Oakland Center
Tue 11:35:15 AM 37.5908 -119.8983 227° Southwest 378 435 20,100 -1,024 Descending Oakland Center
Tue 11:36:16 AM 37.5181 -119.9975 227° Southwest 382 440 20,000 -49 Descending Oakland Center
Tue 11:37:17 AM 37.4456 -120.0964 227° Southwest 383 441 20,000 -780 Level Oakland Center
Tue 11:38:19 AM 37.3586 -120.2131 227° Southwest 380 437 18,400 -1,707 Descending Oakland Center
Tue 11:39:20 AM 37.2833 -120.3150 227° Southwest 392 451 16,500 -1,982 Descending Oakland Center
Tue 11:40:08 AM 37.2333 -120.3833 227° Southwest 394 453 14,800 -2,039 Descending Northern Cal TRACON
Tue 11:41:03 AM 37.2000 -120.5000 250° West 406 467 13,000 -1,947 Descending Northern Cal TRACON
Tue 11:42:02 AM 37.1667 -120.6167 250° West 361 415 11,100 -1,513 Descending Northern Cal TRACON
Tue 11:43:02 AM 37.1500 -120.7333 260° West 339 390 10,000 -550 Descending Northern Cal TRACON
Tue 11:44:02 AM 37.1333 -120.8667 261° West 342 394 10,000  Level Northern Cal TRACON
Tue 11:45:02 AM 37.1333 -120.9833 270° West 346 398 10,000  Level Northern Cal TRACON
Tue 11:45:56 AM 37.1167 -121.0833 258° West 348 400 10,000  Level Northern Cal TRACON
Tue 11:46:31 AM 37.1208 -121.1331 276° West 347 399 10,000  Level Oakland Center
Tue 11:47:32 AM 37.1119 -121.2514 265° West 346 398 10,000 -934 Level Oakland Center
Tue 11:48:33 AM 37.1064 -121.3697 267° West 301 346 8,100 -927 Descending Oakland Center
Tue 11:49:35 AM 37.1019 -121.4631 267° West 276 318 8,100 -49 Level Oakland Center
Tue 11:50:36 AM 37.0822 -121.5564 255° West 279 321 8,000 -439 Descending Oakland Center
Tue 11:51:38 AM 37.0856 -121.6394 273° West 294 338 7,200 -1,073 Descending Oakland Center
Tue 11:52:39 AM 37.1553 -121.7028 324° Northwest 290 334 5,800 -933 Descending Oakland Center
Tue 11:54:51 AM 37.2333 -121.7667 327° Northwest 226 260 4,200 -969 Descending Northern Cal TRACON
Tue 11:55:51 AM 37.2667 -121.8333 302° West 231 266 2,700 -1,421 Descending Northern Cal TRACON
Tue 11:56:45 AM 37.3000 -121.8667 322° Northwest 163 188 1,500 -1,000 Descending Northern Cal TRACON
Tue 11:57:45 AM 37.3333 -121.9000 322° Northwest 122 140 800 -700 Descending Northern Cal TRACON
Tue 11:59:00 AM 37.3500 -121.9167 North  Level FlightAware Approximate
Tue 12:06:00 PM 37.3627 -121.9291 North  Level Estimated
Tue 12:07:00 PM 37.3627 -121.9291 North  Level Estimated

Login

Don't have an account? Register now (free) for customized features, flight alerts, and more!